sensor_id;sensor_type;location;lat;lon;timestamp;temperature;humidity
20946;DHT22;10632;51.276;7.116;2023-07-29T00:01:01;18.10;99.90
20946;DHT22;10632;51.276;7.116;2023-07-29T00:03:31;18.10;99.90
20946;DHT22;10632;51.276;7.116;2023-07-29T00:05:58;18.10;99.90
20946;DHT22;10632;51.276;7.116;2023-07-29T00:08:26;18.10;99.90
20946;DHT22;10632;51.276;7.116;2023-07-29T00:10:53;18.10;99.90
20946;DHT22;10632;51.276;7.116;2023-07-29T00:13:20;18.00;99.90
20946;DHT22;10632;51.276;7.116;2023-07-29T00:15:47;18.00;99.90
20946;DHT22;10632;51.276;7.116;2023-07-29T00:18:14;18.00;99.90
20946;DHT22;10632;51.276;7.116;2023-07-29T00:20:41;18.00;99.90
20946;DHT22;10632;51.276;7.116;2023-07-29T00:23:08;18.00;99.90
20946;DHT22;10632;51.276;7.116;2023-07-29T00:25:36;17.90;99.90
20946;DHT22;10632;51.276;7.116;2023-07-29T00:28:03;17.90;99.90
20946;DHT22;10632;51.276;7.116;2023-07-29T00:30:30;17.90;99.90
20946;DHT22;10632;51.276;7.116;2023-07-29T00:32:57;17.90;99.90
20946;DHT22;10632;51.276;7.116;2023-07-29T00:35:24;17.90;99.90
20946;DHT22;10632;51.276;7.116;2023-07-29T00:37:51;17.90;99.90
20946;DHT22;10632;51.276;7.116;2023-07-29T00:40:20;17.90;99.90
20946;DHT22;10632;51.276;7.116;2023-07-29T00:42:49;17.90;99.90
20946;DHT22;10632;51.276;7.116;2023-07-29T00:45:16;17.90;99.90
20946;DHT22;10632;51.276;7.116;2023-07-29T00:47:43;17.90;99.90
20946;DHT22;10632;51.276;7.116;2023-07-29T00:50:12;17.80;99.90
20946;DHT22;10632;51.276;7.116;2023-07-29T00:52:39;17.90;99.90
20946;DHT22;10632;51.276;7.116;2023-07-29T00:55:07;17.80;99.90
20946;DHT22;10632;51.276;7.116;2023-07-29T00:57:35;17.80;99.90
20946;DHT22;10632;51.276;7.116;2023-07-29T01:00:08;17.80;99.90
20946;DHT22;10632;51.276;7.116;2023-07-29T01:02:36;17.80;99.90
20946;DHT22;10632;51.276;7.116;2023-07-29T01:05:04;17.70;99.90
20946;DHT22;10632;51.276;7.116;2023-07-29T01:07:36;17.70;99.90
20946;DHT22;10632;51.276;7.116;2023-07-29T01:10:10;17.70;99.90
20946;DHT22;10632;51.276;7.116;2023-07-29T01:12:42;17.70;99.90
20946;DHT22;10632;51.276;7.116;2023-07-29T01:15:16;17.70;99.90
20946;DHT22;10632;51.276;7.116;2023-07-29T01:17:49;17.70;99.90
20946;DHT22;10632;51.276;7.116;2023-07-29T01:20:19;17.70;99.90
20946;DHT22;10632;51.276;7.116;2023-07-29T01:22:47;17.70;99.90
20946;DHT22;10632;51.276;7.116;2023-07-29T01:25:16;17.70;99.90
20946;DHT22;10632;51.276;7.116;2023-07-29T01:27:45;17.70;99.90
20946;DHT22;10632;51.276;7.116;2023-07-29T01:30:12;17.70;99.90
20946;DHT22;10632;51.276;7.116;2023-07-29T01:32:43;17.70;99.90
20946;DHT22;10632;51.276;7.116;2023-07-29T01:35:16;17.70;99.90
20946;DHT22;10632;51.276;7.116;2023-07-29T01:37:51;17.70;99.90
20946;DHT22;10632;51.276;7.116;2023-07-29T01:40:22;17.70;99.90
20946;DHT22;10632;51.276;7.116;2023-07-29T01:42:50;17.70;99.90
20946;DHT22;10632;51.276;7.116;2023-07-29T01:45:17;17.70;99.90
20946;DHT22;10632;51.276;7.116;2023-07-29T01:47:44;17.70;99.90
20946;DHT22;10632;51.276;7.116;2023-07-29T01:50:11;17.80;99.90
20946;DHT22;10632;51.276;7.116;2023-07-29T01:52:38;17.70;99.90
20946;DHT22;10632;51.276;7.116;2023-07-29T01:55:05;17.70;99.90
20946;DHT22;10632;51.276;7.116;2023-07-29T01:57:34;17.70;99.90
20946;DHT22;10632;51.276;7.116;2023-07-29T02:00:01;17.70;99.90
20946;DHT22;10632;51.276;7.116;2023-07-29T02:02:29;17.70;99.90
20946;DHT22;10632;51.276;7.116;2023-07-29T02:04:59;17.70;99.90
20946;DHT22;10632;51.276;7.116;2023-07-29T02:07:26;17.80;99.90
20946;DHT22;10632;51.276;7.116;2023-07-29T02:09:53;17.70;99.90
20946;DHT22;10632;51.276;7.116;2023-07-29T02:12:20;17.70;99.90
20946;DHT22;10632;51.276;7.116;2023-07-29T02:14:48;17.70;99.90
20946;DHT22;10632;51.276;7.116;2023-07-29T02:17:15;17.80;99.90
20946;DHT22;10632;51.276;7.116;2023-07-29T02:19:42;17.70;99.90
20946;DHT22;10632;51.276;7.116;2023-07-29T02:22:12;17.70;99.90
20946;DHT22;10632;51.276;7.116;2023-07-29T02:24:39;17.70;99.90
20946;DHT22;10632;51.276;7.116;2023-07-29T02:27:06;17.80;99.90
20946;DHT22;10632;51.276;7.116;2023-07-29T02:29:35;17.70;99.90
20946;DHT22;10632;51.276;7.116;2023-07-29T02:32:03;17.70;99.90
20946;DHT22;10632;51.276;7.116;2023-07-29T02:34:30;17.70;99.90
20946;DHT22;10632;51.276;7.116;2023-07-29T02:36:57;17.70;99.90
20946;DHT22;10632;51.276;7.116;2023-07-29T02:39:24;17.70;99.90
20946;DHT22;10632;51.276;7.116;2023-07-29T02:41:51;17.70;99.90
20946;DHT22;10632;51.276;7.116;2023-07-29T02:44:18;17.80;99.90
20946;DHT22;10632;51.276;7.116;2023-07-29T02:46:45;17.70;99.90
20946;DHT22;10632;51.276;7.116;2023-07-29T02:49:14;17.70;99.90
20946;DHT22;10632;51.276;7.116;2023-07-29T02:51:41;17.70;99.90
20946;DHT22;10632;51.276;7.116;2023-07-29T02:54:07;17.70;99.90
20946;DHT22;10632;51.276;7.116;2023-07-29T02:56:34;17.70;99.90
20946;DHT22;10632;51.276;7.116;2023-07-29T02:59:04;17.70;99.90
20946;DHT22;10632;51.276;7.116;2023-07-29T03:01:31;17.70;99.90
20946;DHT22;10632;51.276;7.116;2023-07-29T03:03:58;17.70;99.90
20946;DHT22;10632;51.276;7.116;2023-07-29T03:06:28;17.70;99.90
20946;DHT22;10632;51.276;7.116;2023-07-29T03:08:55;17.80;99.90
20946;DHT22;10632;51.276;7.116;2023-07-29T03:11:22;17.80;99.90
20946;DHT22;10632;51.276;7.116;2023-07-29T03:13:48;17.70;99.90
20946;DHT22;10632;51.276;7.116;2023-07-29T03:16:17;17.70;99.90
20946;DHT22;10632;51.276;7.116;2023-07-29T03:18:44;17.70;99.90
20946;DHT22;10632;51.276;7.116;2023-07-29T03:21:11;17.70;99.90
20946;DHT22;10632;51.276;7.116;2023-07-29T03:23:40;17.70;99.90
20946;DHT22;10632;51.276;7.116;2023-07-29T03:26:10;17.70;99.90
20946;DHT22;10632;51.276;7.116;2023-07-29T03:28:39;17.70;99.90
20946;DHT22;10632;51.276;7.116;2023-07-29T03:31:06;17.80;99.90
20946;DHT22;10632;51.276;7.116;2023-07-29T03:33:33;17.70;99.90
20946;DHT22;10632;51.276;7.116;2023-07-29T03:36:00;17.80;99.90
20946;DHT22;10632;51.276;7.116;2023-07-29T03:38:27;17.70;99.90
20946;DHT22;10632;51.276;7.116;2023-07-29T03:40:55;17.80;99.90
20946;DHT22;10632;51.276;7.116;2023-07-29T03:43:22;17.70;99.90
20946;DHT22;10632;51.276;7.116;2023-07-29T03:45:49;17.70;99.90
20946;DHT22;10632;51.276;7.116;2023-07-29T03:48:16;17.80;99.90
20946;DHT22;10632;51.276;7.116;2023-07-29T03:50:43;17.80;99.90
20946;DHT22;10632;51.276;7.116;2023-07-29T03:53:10;17.80;99.90
20946;DHT22;10632;51.276;7.116;2023-07-29T03:55:41;17.80;99.90
20946;DHT22;10632;51.276;7.116;2023-07-29T03:58:09;17.80;99.90
20946;DHT22;10632;51.276;7.116;2023-07-29T04:00:36;17.80;99.90
20946;DHT22;10632;51.276;7.116;2023-07-29T04:03:03;17.80;99.90
20946;DHT22;10632;51.276;7.116;2023-07-29T04:05:30;17.80;99.90
20946;DHT22;10632;51.276;7.116;2023-07-29T04:07:57;17.80;99.90
20946;DHT22;10632;51.276;7.116;2023-07-29T04:10:24;17.80;99.90
20946;DHT22;10632;51.276;7.116;2023-07-29T04:12:51;17.80;99.90
20946;DHT22;10632;51.276;7.116;2023-07-29T04:15:19;17.80;99.90
20946;DHT22;10632;51.276;7.116;2023-07-29T04:17:46;17.90;99.90
20946;DHT22;10632;51.276;7.116;2023-07-29T04:20:13;17.80;99.90
20946;DHT22;10632;51.276;7.116;2023-07-29T04:22:39;17.80;99.90
20946;DHT22;10632;51.276;7.116;2023-07-29T04:25:07;17.80;99.90
20946;DHT22;10632;51.276;7.116;2023-07-29T04:27:34;17.80;99.90
20946;DHT22;10632;51.276;7.116;2023-07-29T04:30:00;17.90;99.90
20946;DHT22;10632;51.276;7.116;2023-07-29T04:32:28;17.80;99.90
20946;DHT22;10632;51.276;7.116;2023-07-29T04:34:55;17.80;99.90
20946;DHT22;10632;51.276;7.116;2023-07-29T04:37:22;17.80;99.90
20946;DHT22;10632;51.276;7.116;2023-07-29T04:39:49;17.80;99.90
20946;DHT22;10632;51.276;7.116;2023-07-29T04:42:16;17.80;99.90
20946;DHT22;10632;51.276;7.116;2023-07-29T04:44:43;17.80;99.90
20946;DHT22;10632;51.276;7.116;2023-07-29T04:47:10;17.70;99.90
20946;DHT22;10632;51.276;7.116;2023-07-29T04:49:38;17.70;99.90
20946;DHT22;10632;51.276;7.116;2023-07-29T04:52:06;17.60;99.90
20946;DHT22;10632;51.276;7.116;2023-07-29T04:54:32;17.60;99.90
20946;DHT22;10632;51.276;7.116;2023-07-29T04:57:00;17.70;99.90
20946;DHT22;10632;51.276;7.116;2023-07-29T04:59:26;17.60;99.90
20946;DHT22;10632;51.276;7.116;2023-07-29T05:01:53;17.60;99.90
20946;DHT22;10632;51.276;7.116;2023-07-29T05:04:22;17.60;99.90
20946;DHT22;10632;51.276;7.116;2023-07-29T05:06:51;17.50;99.90
20946;DHT22;10632;51.276;7.116;2023-07-29T05:09:18;17.40;99.90
20946;DHT22;10632;51.276;7.116;2023-07-29T05:11:46;17.40;99.90
20946;DHT22;10632;51.276;7.116;2023-07-29T05:14:16;17.30;99.90
20946;DHT22;10632;51.276;7.116;2023-07-29T05:16:43;17.20;99.90
20946;DHT22;10632;51.276;7.116;2023-07-29T05:19:10;17.20;99.90
20946;DHT22;10632;51.276;7.116;2023-07-29T05:21:38;17.10;99.90
20946;DHT22;10632;51.276;7.116;2023-07-29T05:24:06;17.10;99.90
20946;DHT22;10632;51.276;7.116;2023-07-29T05:26:33;17.10;99.90
20946;DHT22;10632;51.276;7.116;2023-07-29T05:29:00;17.10;99.90
20946;DHT22;10632;51.276;7.116;2023-07-29T05:31:27;17.10;99.90
20946;DHT22;10632;51.276;7.116;2023-07-29T05:33:54;17.10;99.90
20946;DHT22;10632;51.276;7.116;2023-07-29T05:36:24;17.10;99.90
20946;DHT22;10632;51.276;7.116;2023-07-29T05:38:52;17.10;99.90
20946;DHT22;10632;51.276;7.116;2023-07-29T05:41:20;17.00;99.90
20946;DHT22;10632;51.276;7.116;2023-07-29T05:43:47;17.00;99.90
20946;DHT22;10632;51.276;7.116;2023-07-29T05:46:14;17.00;99.90
20946;DHT22;10632;51.276;7.116;2023-07-29T05:48:41;17.00;99.90
20946;DHT22;10632;51.276;7.116;2023-07-29T05:51:08;17.00;99.90
20946;DHT22;10632;51.276;7.116;2023-07-29T05:53:35;17.00;99.90
20946;DHT22;10632;51.276;7.116;2023-07-29T05:56:02;16.90;99.90
20946;DHT22;10632;51.276;7.116;2023-07-29T05:58:30;17.00;99.90
20946;DHT22;10632;51.276;7.116;2023-07-29T06:00:57;17.00;99.90
20946;DHT22;10632;51.276;7.116;2023-07-29T06:03:25;17.00;99.90
20946;DHT22;10632;51.276;7.116;2023-07-29T06:05:52;17.00;99.90
20946;DHT22;10632;51.276;7.116;2023-07-29T06:08:19;17.00;99.90
20946;DHT22;10632;51.276;7.116;2023-07-29T06:10:46;16.90;99.90
20946;DHT22;10632;51.276;7.116;2023-07-29T06:13:13;16.90;99.90
20946;DHT22;10632;51.276;7.116;2023-07-29T06:15:41;16.90;99.90
20946;DHT22;10632;51.276;7.116;2023-07-29T06:18:08;16.90;99.90
20946;DHT22;10632;51.276;7.116;2023-07-29T06:20:37;16.90;99.90
20946;DHT22;10632;51.276;7.116;2023-07-29T06:23:04;16.90;99.90
20946;DHT22;10632;51.276;7.116;2023-07-29T06:25:31;16.80;99.90
20946;DHT22;10632;51.276;7.116;2023-07-29T06:27:57;16.80;99.90
20946;DHT22;10632;51.276;7.116;2023-07-29T06:30:24;16.80;99.90
20946;DHT22;10632;51.276;7.116;2023-07-29T06:32:53;16.80;99.90
20946;DHT22;10632;51.276;7.116;2023-07-29T06:35:20;16.80;99.90
20946;DHT22;10632;51.276;7.116;2023-07-29T06:37:47;16.80;99.90
20946;DHT22;10632;51.276;7.116;2023-07-29T06:40:14;16.70;99.90
20946;DHT22;10632;51.276;7.116;2023-07-29T06:42:41;16.70;99.90
20946;DHT22;10632;51.276;7.116;2023-07-29T06:45:08;16.70;99.90
20946;DHT22;10632;51.276;7.116;2023-07-29T06:47:35;16.70;99.90
20946;DHT22;10632;51.276;7.116;2023-07-29T06:50:04;16.60;99.90
20946;DHT22;10632;51.276;7.116;2023-07-29T06:52:31;16.60;99.90
20946;DHT22;10632;51.276;7.116;2023-07-29T06:54:58;16.60;99.90
20946;DHT22;10632;51.276;7.116;2023-07-29T06:57:25;16.60;99.90
20946;DHT22;10632;51.276;7.116;2023-07-29T06:59:52;16.70;99.90
20946;DHT22;10632;51.276;7.116;2023-07-29T07:02:19;16.70;99.90
20946;DHT22;10632;51.276;7.116;2023-07-29T07:04:46;16.60;99.90
20946;DHT22;10632;51.276;7.116;2023-07-29T07:07:15;16.60;99.90
20946;DHT22;10632;51.276;7.116;2023-07-29T07:09:45;16.60;99.90
20946;DHT22;10632;51.276;7.116;2023-07-29T07:12:12;16.60;99.90
20946;DHT22;10632;51.276;7.116;2023-07-29T07:14:38;16.50;99.90
20946;DHT22;10632;51.276;7.116;2023-07-29T07:17:05;16.50;99.90
20946;DHT22;10632;51.276;7.116;2023-07-29T07:19:32;16.50;99.90
20946;DHT22;10632;51.276;7.116;2023-07-29T07:21:59;16.50;99.90
20946;DHT22;10632;51.276;7.116;2023-07-29T07:24:27;16.50;99.90
20946;DHT22;10632;51.276;7.116;2023-07-29T07:26:54;16.60;99.90
20946;DHT22;10632;51.276;7.116;2023-07-29T07:29:21;16.60;99.90
20946;DHT22;10632;51.276;7.116;2023-07-29T07:31:50;16.60;99.90
20946;DHT22;10632;51.276;7.116;2023-07-29T07:34:18;16.60;99.90
20946;DHT22;10632;51.276;7.116;2023-07-29T07:36:45;16.60;99.90
20946;DHT22;10632;51.276;7.116;2023-07-29T07:39:12;16.60;99.90
20946;DHT22;10632;51.276;7.116;2023-07-29T07:41:40;16.60;99.90
20946;DHT22;10632;51.276;7.116;2023-07-29T07:44:08;16.60;99.90
20946;DHT22;10632;51.276;7.116;2023-07-29T07:46:36;16.60;99.90
20946;DHT22;10632;51.276;7.116;2023-07-29T07:49:03;16.60;99.90
20946;DHT22;10632;51.276;7.116;2023-07-29T07:51:30;16.70;99.90
20946;DHT22;10632;51.276;7.116;2023-07-29T07:53:57;16.70;99.90
20946;DHT22;10632;51.276;7.116;2023-07-29T07:56:23;16.70;99.90
20946;DHT22;10632;51.276;7.116;2023-07-29T07:58:52;16.80;99.90
20946;DHT22;10632;51.276;7.116;2023-07-29T08:01:18;16.80;99.90
20946;DHT22;10632;51.276;7.116;2023-07-29T08:03:46;16.90;99.90
20946;DHT22;10632;51.276;7.116;2023-07-29T08:06:12;16.90;99.90
20946;DHT22;10632;51.276;7.116;2023-07-29T08:08:39;17.00;99.90
20946;DHT22;10632;51.276;7.116;2023-07-29T08:11:06;17.10;99.90
20946;DHT22;10632;51.276;7.116;2023-07-29T08:13:33;17.10;99.90
20946;DHT22;10632;51.276;7.116;2023-07-29T08:16:01;17.10;99.90
20946;DHT22;10632;51.276;7.116;2023-07-29T08:18:28;17.20;99.90
20946;DHT22;10632;51.276;7.116;2023-07-29T08:20:56;17.10;99.90
20946;DHT22;10632;51.276;7.116;2023-07-29T08:23:25;17.10;99.90
20946;DHT22;10632;51.276;7.116;2023-07-29T08:25:56;17.10;99.90
20946;DHT22;10632;51.276;7.116;2023-07-29T08:28:27;17.10;99.90
20946;DHT22;10632;51.276;7.116;2023-07-29T08:30:55;17.10;99.90
20946;DHT22;10632;51.276;7.116;2023-07-29T08:33:23;17.10;99.90
20946;DHT22;10632;51.276;7.116;2023-07-29T08:35:50;17.20;99.90
20946;DHT22;10632;51.276;7.116;2023-07-29T08:38:17;17.20;99.90
20946;DHT22;10632;51.276;7.116;2023-07-29T08:40:48;17.30;99.90
20946;DHT22;10632;51.276;7.116;2023-07-29T08:43:18;17.30;99.90
20946;DHT22;10632;51.276;7.116;2023-07-29T08:45:49;17.30;99.90
20946;DHT22;10632;51.276;7.116;2023-07-29T08:48:21;17.40;99.90
20946;DHT22;10632;51.276;7.116;2023-07-29T08:50:52;17.50;99.90
20946;DHT22;10632;51.276;7.116;2023-07-29T08:53:20;17.60;99.90
20946;DHT22;10632;51.276;7.116;2023-07-29T08:55:47;17.70;99.90
20946;DHT22;10632;51.276;7.116;2023-07-29T08:58:15;17.70;99.90
20946;DHT22;10632;51.276;7.116;2023-07-29T09:00:43;17.80;99.90
20946;DHT22;10632;51.276;7.116;2023-07-29T09:03:10;17.90;99.90
20946;DHT22;10632;51.276;7.116;2023-07-29T09:05:37;17.90;99.90
20946;DHT22;10632;51.276;7.116;2023-07-29T09:08:06;18.00;99.90
20946;DHT22;10632;51.276;7.116;2023-07-29T09:10:35;18.00;99.90
20946;DHT22;10632;51.276;7.116;2023-07-29T09:13:02;18.10;99.90
20946;DHT22;10632;51.276;7.116;2023-07-29T09:15:31;18.10;99.90
20946;DHT22;10632;51.276;7.116;2023-07-29T09:17:58;18.10;99.90
20946;DHT22;10632;51.276;7.116;2023-07-29T09:20:26;18.20;99.90
20946;DHT22;10632;51.276;7.116;2023-07-29T09:22:54;18.30;99.90
20946;DHT22;10632;51.276;7.116;2023-07-29T09:25:26;18.30;99.90
20946;DHT22;10632;51.276;7.116;2023-07-29T09:27:58;18.40;99.90
20946;DHT22;10632;51.276;7.116;2023-07-29T09:30:26;18.40;99.90
20946;DHT22;10632;51.276;7.116;2023-07-29T09:32:55;18.50;99.90
20946;DHT22;10632;51.276;7.116;2023-07-29T09:35:22;18.50;99.90
20946;DHT22;10632;51.276;7.116;2023-07-29T09:37:50;18.50;99.90
20946;DHT22;10632;51.276;7.116;2023-07-29T09:40:18;18.50;99.90
20946;DHT22;10632;51.276;7.116;2023-07-29T09:42:50;18.50;99.90
20946;DHT22;10632;51.276;7.116;2023-07-29T09:45:24;18.40;99.90
20946;DHT22;10632;51.276;7.116;2023-07-29T09:47:52;18.50;99.90
20946;DHT22;10632;51.276;7.116;2023-07-29T09:50:20;18.50;99.90
20946;DHT22;10632;51.276;7.116;2023-07-29T09:52:50;18.60;99.90
20946;DHT22;10632;51.276;7.116;2023-07-29T09:55:18;18.60;99.90
20946;DHT22;10632;51.276;7.116;2023-07-29T09:57:46;18.60;99.90
20946;DHT22;10632;51.276;7.116;2023-07-29T10:00:14;18.70;99.90
20946;DHT22;10632;51.276;7.116;2023-07-29T10:02:42;18.70;99.90
20946;DHT22;10632;51.276;7.116;2023-07-29T10:05:10;18.60;99.90
20946;DHT22;10632;51.276;7.116;2023-07-29T10:07:39;18.60;99.90
20946;DHT22;10632;51.276;7.116;2023-07-29T10:10:07;18.60;99.90
20946;DHT22;10632;51.276;7.116;2023-07-29T10:12:35;18.60;99.90
20946;DHT22;10632;51.276;7.116;2023-07-29T10:15:06;18.50;99.90
20946;DHT22;10632;51.276;7.116;2023-07-29T10:17:37;18.50;99.90
20946;DHT22;10632;51.276;7.116;2023-07-29T10:20:05;18.40;99.90
20946;DHT22;10632;51.276;7.116;2023-07-29T10:22:35;18.30;99.90
20946;DHT22;10632;51.276;7.116;2023-07-29T10:25:08;18.30;99.90
20946;DHT22;10632;51.276;7.116;2023-07-29T10:27:41;18.30;99.90
20946;DHT22;10632;51.276;7.116;2023-07-29T10:30:10;18.30;99.90
20946;DHT22;10632;51.276;7.116;2023-07-29T10:32:41;18.30;99.90
20946;DHT22;10632;51.276;7.116;2023-07-29T10:35:09;18.40;99.90
20946;DHT22;10632;51.276;7.116;2023-07-29T10:37:36;18.40;99.90
20946;DHT22;10632;51.276;7.116;2023-07-29T10:40:07;18.70;99.90
20946;DHT22;10632;51.276;7.116;2023-07-29T10:42:34;18.90;99.90
20946;DHT22;10632;51.276;7.116;2023-07-29T10:45:17;19.10;99.90
20946;DHT22;10632;51.276;7.116;2023-07-29T10:47:46;19.30;99.90
20946;DHT22;10632;51.276;7.116;2023-07-29T10:50:18;19.50;99.90
20946;DHT22;10632;51.276;7.116;2023-07-29T10:52:49;19.70;99.90
20946;DHT22;10632;51.276;7.116;2023-07-29T10:55:28;19.80;99.90
20946;DHT22;10632;51.276;7.116;2023-07-29T10:58:11;19.90;99.90
20946;DHT22;10632;51.276;7.116;2023-07-29T11:00:39;19.90;99.90
20946;DHT22;10632;51.276;7.116;2023-07-29T11:03:09;19.90;99.90
20946;DHT22;10632;51.276;7.116;2023-07-29T11:05:45;19.80;99.90
20946;DHT22;10632;51.276;7.116;2023-07-29T11:08:20;19.80;99.90
20946;DHT22;10632;51.276;7.116;2023-07-29T11:11:05;19.70;99.90
20946;DHT22;10632;51.276;7.116;2023-07-29T11:13:33;19.70;99.90
20946;DHT22;10632;51.276;7.116;2023-07-29T11:16:01;19.70;99.90
20946;DHT22;10632;51.276;7.116;2023-07-29T11:18:30;19.60;99.90
20946;DHT22;10632;51.276;7.116;2023-07-29T11:20:58;19.60;99.90
20946;DHT22;10632;51.276;7.116;2023-07-29T11:23:30;19.60;99.90
20946;DHT22;10632;51.276;7.116;2023-07-29T11:25:57;19.60;99.90
20946;DHT22;10632;51.276;7.116;2023-07-29T11:28:24;19.60;99.90
20946;DHT22;10632;51.276;7.116;2023-07-29T11:30:51;19.70;99.90
20946;DHT22;10632;51.276;7.116;2023-07-29T11:33:20;19.90;99.90
20946;DHT22;10632;51.276;7.116;2023-07-29T11:35:49;20.10;99.90
20946;DHT22;10632;51.276;7.116;2023-07-29T11:38:16;20.30;99.90
20946;DHT22;10632;51.276;7.116;2023-07-29T11:40:54;20.40;99.90
20946;DHT22;10632;51.276;7.116;2023-07-29T11:43:20;20.30;99.90
20946;DHT22;10632;51.276;7.116;2023-07-29T11:45:47;20.20;99.90
20946;DHT22;10632;51.276;7.116;2023-07-29T11:48:14;20.10;99.90
20946;DHT22;10632;51.276;7.116;2023-07-29T11:50:41;20.00;99.90
20946;DHT22;10632;51.276;7.116;2023-07-29T11:53:11;20.00;99.90
20946;DHT22;10632;51.276;7.116;2023-07-29T11:55:38;19.90;99.90
20946;DHT22;10632;51.276;7.116;2023-07-29T11:58:05;19.90;99.90
20946;DHT22;10632;51.276;7.116;2023-07-29T12:00:31;20.00;99.90
20946;DHT22;10632;51.276;7.116;2023-07-29T12:02:59;20.00;99.90
20946;DHT22;10632;51.276;7.116;2023-07-29T12:05:26;20.00;99.90
20946;DHT22;10632;51.276;7.116;2023-07-29T12:07:53;19.90;99.90
20946;DHT22;10632;51.276;7.116;2023-07-29T12:10:22;19.90;99.90
20946;DHT22;10632;51.276;7.116;2023-07-29T12:12:50;19.90;99.90
20946;DHT22;10632;51.276;7.116;2023-07-29T12:15:23;19.90;99.90
20946;DHT22;10632;51.276;7.116;2023-07-29T12:17:53;19.80;99.90
20946;DHT22;10632;51.276;7.116;2023-07-29T12:20:22;19.80;99.90
20946;DHT22;10632;51.276;7.116;2023-07-29T12:22:52;19.80;99.90
20946;DHT22;10632;51.276;7.116;2023-07-29T12:25:19;19.80;99.90
20946;DHT22;10632;51.276;7.116;2023-07-29T12:27:48;19.90;99.90
20946;DHT22;10632;51.276;7.116;2023-07-29T12:30:15;19.90;99.90
20946;DHT22;10632;51.276;7.116;2023-07-29T12:32:46;19.90;99.90
20946;DHT22;10632;51.276;7.116;2023-07-29T12:35:13;19.90;99.90
20946;DHT22;10632;51.276;7.116;2023-07-29T12:37:41;19.90;99.90
20946;DHT22;10632;51.276;7.116;2023-07-29T12:42:53;20.00;99.90
20946;DHT22;10632;51.276;7.116;2023-07-29T12:45:20;20.10;99.90
20946;DHT22;10632;51.276;7.116;2023-07-29T12:47:48;20.10;99.90
20946;DHT22;10632;51.276;7.116;2023-07-29T12:50:15;20.10;99.90
20946;DHT22;10632;51.276;7.116;2023-07-29T12:52:42;20.20;99.90
20946;DHT22;10632;51.276;7.116;2023-07-29T12:55:09;20.40;99.90
20946;DHT22;10632;51.276;7.116;2023-07-29T12:57:40;20.60;99.90
20946;DHT22;10632;51.276;7.116;2023-07-29T13:00:10;20.80;99.90
20946;DHT22;10632;51.276;7.116;2023-07-29T13:02:37;21.00;99.90
20946;DHT22;10632;51.276;7.116;2023-07-29T13:05:06;21.20;99.90
20946;DHT22;10632;51.276;7.116;2023-07-29T13:07:33;21.20;99.90
20946;DHT22;10632;51.276;7.116;2023-07-29T13:10:00;21.20;99.90
20946;DHT22;10632;51.276;7.116;2023-07-29T13:12:27;21.20;99.90
20946;DHT22;10632;51.276;7.116;2023-07-29T13:14:54;21.20;99.90
20946;DHT22;10632;51.276;7.116;2023-07-29T13:17:22;21.20;99.90
20946;DHT22;10632;51.276;7.116;2023-07-29T13:19:49;21.10;99.90
20946;DHT22;10632;51.276;7.116;2023-07-29T13:22:16;21.10;99.90
20946;DHT22;10632;51.276;7.116;2023-07-29T13:24:46;21.10;99.90
20946;DHT22;10632;51.276;7.116;2023-07-29T13:27:13;21.10;99.90
20946;DHT22;10632;51.276;7.116;2023-07-29T13:29:40;21.00;99.90
20946;DHT22;10632;51.276;7.116;2023-07-29T13:32:10;21.00;99.90
20946;DHT22;10632;51.276;7.116;2023-07-29T13:34:38;20.90;99.90
20946;DHT22;10632;51.276;7.116;2023-07-29T13:37:06;20.90;99.90
20946;DHT22;10632;51.276;7.116;2023-07-29T13:39:33;20.90;99.90
20946;DHT22;10632;51.276;7.116;2023-07-29T13:41:59;20.80;99.90
20946;DHT22;10632;51.276;7.116;2023-07-29T13:44:26;20.80;99.90
20946;DHT22;10632;51.276;7.116;2023-07-29T13:46:53;20.70;99.90
20946;DHT22;10632;51.276;7.116;2023-07-29T13:49:20;20.70;99.90
20946;DHT22;10632;51.276;7.116;2023-07-29T13:51:48;20.70;99.90
20946;DHT22;10632;51.276;7.116;2023-07-29T13:54:15;20.60;99.90
20946;DHT22;10632;51.276;7.116;2023-07-29T13:56:42;20.60;99.90
20946;DHT22;10632;51.276;7.116;2023-07-29T13:59:09;20.60;99.90
20946;DHT22;10632;51.276;7.116;2023-07-29T14:01:36;20.50;99.90
20946;DHT22;10632;51.276;7.116;2023-07-29T14:04:03;20.50;99.90
20946;DHT22;10632;51.276;7.116;2023-07-29T14:06:30;20.40;99.90
20946;DHT22;10632;51.276;7.116;2023-07-29T14:08:59;20.40;99.90
20946;DHT22;10632;51.276;7.116;2023-07-29T14:11:25;20.40;99.90
20946;DHT22;10632;51.276;7.116;2023-07-29T14:13:52;20.40;99.90
20946;DHT22;10632;51.276;7.116;2023-07-29T14:16:19;20.30;99.90
20946;DHT22;10632;51.276;7.116;2023-07-29T14:18:48;20.30;99.90
20946;DHT22;10632;51.276;7.116;2023-07-29T14:21:15;20.30;99.90
20946;DHT22;10632;51.276;7.116;2023-07-29T14:23:42;20.40;99.90
20946;DHT22;10632;51.276;7.116;2023-07-29T14:26:10;20.40;99.90
20946;DHT22;10632;51.276;7.116;2023-07-29T14:28:37;20.40;99.90
20946;DHT22;10632;51.276;7.116;2023-07-29T14:31:04;20.50;99.90
20946;DHT22;10632;51.276;7.116;2023-07-29T14:33:31;20.50;99.90
20946;DHT22;10632;51.276;7.116;2023-07-29T14:35:58;20.50;99.90
20946;DHT22;10632;51.276;7.116;2023-07-29T14:38:24;20.50;99.90
20946;DHT22;10632;51.276;7.116;2023-07-29T14:40:52;20.40;99.90
20946;DHT22;10632;51.276;7.116;2023-07-29T14:43:21;20.40;99.90
20946;DHT22;10632;51.276;7.116;2023-07-29T14:45:48;20.30;99.90
20946;DHT22;10632;51.276;7.116;2023-07-29T14:48:15;20.30;99.90
20946;DHT22;10632;51.276;7.116;2023-07-29T14:50:42;20.30;99.90
20946;DHT22;10632;51.276;7.116;2023-07-29T14:53:10;20.30;99.90
20946;DHT22;10632;51.276;7.116;2023-07-29T14:55:37;20.30;99.90
20946;DHT22;10632;51.276;7.116;2023-07-29T14:58:04;20.30;99.90
20946;DHT22;10632;51.276;7.116;2023-07-29T15:00:32;20.30;99.90
20946;DHT22;10632;51.276;7.116;2023-07-29T15:02:59;20.30;99.90
20946;DHT22;10632;51.276;7.116;2023-07-29T15:05:27;20.30;99.90
20946;DHT22;10632;51.276;7.116;2023-07-29T15:07:54;20.30;99.90
20946;DHT22;10632;51.276;7.116;2023-07-29T15:10:20;20.20;99.90
20946;DHT22;10632;51.276;7.116;2023-07-29T15:12:48;20.20;99.90
20946;DHT22;10632;51.276;7.116;2023-07-29T15:15:15;20.20;99.90
20946;DHT22;10632;51.276;7.116;2023-07-29T15:17:43;20.20;99.90
20946;DHT22;10632;51.276;7.116;2023-07-29T15:20:11;20.20;99.90
20946;DHT22;10632;51.276;7.116;2023-07-29T15:22:38;20.20;99.90
20946;DHT22;10632;51.276;7.116;2023-07-29T15:25:05;20.20;99.90
20946;DHT22;10632;51.276;7.116;2023-07-29T15:27:32;20.20;99.90
20946;DHT22;10632;51.276;7.116;2023-07-29T15:29:59;20.30;99.90
20946;DHT22;10632;51.276;7.116;2023-07-29T15:32:26;20.30;99.90
20946;DHT22;10632;51.276;7.116;2023-07-29T15:34:54;20.30;99.90
20946;DHT22;10632;51.276;7.116;2023-07-29T15:37:21;20.30;99.90